Time;durP1;ratioP1;P1;durP2;ratioP2;P2;SDS_P1;SDS_P2;PMS_P1;PMS_P2;Temp;Humidity;BMP_temperature;BMP_pressure;BME280_temperature;BME280_humidity;BME280_pressure;Samples;Min_cycle;Max_cycle;Signal;HPM_P1;HPM_P2
2021/12/04 00:00:00;;;;;;;51.70;33.85;;;5.50;99.90;;;;;;5015246;28;20387;-75
2021/12/04 00:02:26;;;;;;;51.00;32.88;;;5.50;99.90;;;;;;5014831;28;20457;-74
2021/12/04 00:04:54;;;;;;;55.03;36.53;;;5.50;99.90;;;;;;5014612;28;20060;-75
2021/12/04 00:07:23;;;;;;;45.95;33.60;;;5.50;99.90;;;;;;5015385;28;20065;-75
2021/12/04 00:09:50;;;;;;;55.30;35.38;;;5.50;99.90;;;;;;5014906;28;20050;-75
2021/12/04 00:12:17;;;;;;;55.88;34.90;;;5.50;99.90;;;;;;5014966;28;20053;-75
2021/12/04 00:14:44;;;;;;;57.35;35.17;;;5.50;99.90;;;;;;5014658;28;20512;-75
2021/12/04 00:17:11;;;;;;;46.17;32.30;;;5.50;99.90;;;;;;5014915;28;20068;-75
2021/12/04 00:19:37;;;;;;;60.95;34.35;;;5.50;99.90;;;;;;5014587;28;20038;-75
2021/12/04 00:22:04;;;;;;;54.22;33.72;;;5.50;99.90;;;;;;5014731;28;20058;-75
2021/12/04 00:24:29;;;;;;;74.93;37.10;;;5.40;99.90;;;;;;4997514;28;20475;-75
2021/12/04 00:26:55;;;;;;;57.37;34.03;;;5.40;99.90;;;;;;4996831;28;20054;-75
2021/12/04 00:29:22;;;;;;;61.50;35.30;;;5.50;99.90;;;;;;5014667;28;20050;-75
2021/12/04 00:31:51;;;;;;;64.60;34.05;;;5.50;99.90;;;;;;5014371;28;20049;-75
2021/12/04 00:34:19;;;;;;;57.97;32.38;;;5.40;99.90;;;;;;5014621;28;20057;-75
2021/12/04 00:50:13;;;;;;;68.43;34.35;;;5.40;99.90;;;;;;5014553;28;20401;-75
2021/12/04 00:52:39;;;;;;;58.85;33.38;;;5.40;99.90;;;;;;5013890;28;20046;-75
2021/12/04 00:55:06;;;;;;;63.87;32.70;;;5.40;99.90;;;;;;5013914;28;20050;-75
2021/12/04 00:57:32;;;;;;;67.28;33.10;;;5.40;99.90;;;;;;5014042;28;20490;-75
2021/12/04 00:59:58;;;;;;;60.70;31.43;;;5.40;99.90;;;;;;4996196;28;20053;-75
2021/12/04 01:02:24;;;;;;;77.17;31.67;;;5.40;99.90;;;;;;4996538;28;20049;-75
2021/12/04 01:04:50;;;;;;;86.80;35.07;;;5.40;99.90;;;;;;5013675;28;20049;-76
2021/12/04 01:07:16;;;;;;;60.85;31.08;;;5.40;99.90;;;;;;5014037;28;20050;-75
2021/12/04 01:09:43;;;;;;;93.35;35.63;;;5.40;99.90;;;;;;5013741;28;20112;-75
2021/12/04 01:12:10;;;;;;;56.90;29.98;;;5.40;99.90;;;;;;5013905;28;20049;-75
2021/12/04 01:14:36;;;;;;;96.03;34.15;;;5.30;99.90;;;;;;5013570;28;20100;-75
2021/12/04 01:17:03;;;;;;;85.57;33.28;;;5.30;99.90;;;;;;4995749;28;20081;-75
2021/12/04 01:19:30;;;;;;;81.07;35.13;;;5.30;99.90;;;;;;5013992;28;20046;-75
2021/12/04 01:21:57;;;;;;;77.55;30.73;;;5.30;99.90;;;;;;5013407;28;20125;-75
2021/12/04 01:24:23;;;;;;;55.95;29.75;;;5.30;99.90;;;;;;5013697;28;20081;-75
2021/12/04 01:26:49;;;;;;;79.75;32.10;;;5.30;99.90;;;;;;5013307;28;20153;-75
2021/12/04 01:29:16;;;;;;;102.18;35.25;;;5.30;99.90;;;;;;5013659;28;20073;-75
2021/12/04 01:31:43;;;;;;;67.78;30.40;;;5.30;99.90;;;;;;5013170;28;20144;-75
2021/12/04 01:34:08;;;;;;;59.90;29.92;;;5.30;99.90;;;;;;5013541;28;20050;-75
2021/12/04 01:36:34;;;;;;;60.97;29.23;;;5.30;99.90;;;;;;4996183;28;20049;-75
2021/12/04 01:39:00;;;;;;;72.43;30.97;;;5.30;99.90;;;;;;5013234;28;20049;-75
2021/12/04 01:41:26;;;;;;;61.35;28.67;;;5.30;99.90;;;;;;5013042;28;20458;-75
2021/12/04 01:43:52;;;;;;;84.22;30.10;;;5.30;99.90;;;;;;5013100;28;20049;-75
2021/12/04 01:46:18;;;;;;;70.20;29.07;;;5.30;99.90;;;;;;5013455;28;20577;-75
2021/12/04 01:48:44;;;;;;;72.90;30.05;;;5.40;99.90;;;;;;5012861;28;20289;-75
2021/12/04 01:51:10;;;;;;;61.43;30.00;;;5.30;99.90;;;;;;5013317;28;20371;-75
2021/12/04 01:53:36;;;;;;;74.13;31.13;;;5.30;99.90;;;;;;4995882;28;20046;-75
2021/12/04 01:56:03;;;;;;;81.47;32.27;;;5.30;99.90;;;;;;5013008;28;20431;-75
2021/12/04 01:58:30;;;;;;;74.25;31.92;;;5.30;99.90;;;;;;5013217;28;20281;-75
2021/12/04 02:00:56;;;;;;;76.43;30.80;;;5.30;99.90;;;;;;5012693;28;20107;-75
2021/12/04 02:03:22;;;;;;;64.15;30.23;;;5.30;99.90;;;;;;5013298;28;20093;-75
2021/12/04 02:05:50;;;;;;;76.17;32.13;;;5.40;99.90;;;;;;4995721;28;20092;-75
2021/12/04 02:08:19;;;;;;;64.32;31.25;;;5.30;99.90;;;;;;5013125;28;20053;-75
2021/12/04 02:10:47;;;;;;;68.63;32.13;;;5.30;99.90;;;;;;5012713;28;20042;-75
2021/12/04 02:13:15;;;;;;;67.35;30.75;;;5.30;99.90;;;;;;5013016;28;20132;-75
2021/12/04 02:15:41;;;;;;;84.78;33.10;;;5.30;99.90;;;;;;5012966;28;20061;-75
2021/12/04 02:18:08;;;;;;;66.00;31.33;;;5.30;99.90;;;;;;5012702;28;20050;-75
2021/12/04 02:20:34;;;;;;;68.30;29.33;;;5.30;99.90;;;;;;5012824;28;20049;-75
2021/12/04 02:23:04;;;;;;;75.65;33.30;;;5.40;99.90;;;;;;5012594;28;20084;-75
2021/12/04 02:25:30;;;;;;;72.78;31.30;;;5.40;99.90;;;;;;5012940;28;20077;-75
2021/12/04 02:27:56;;;;;;;62.08;28.08;;;5.40;99.90;;;;;;5013623;28;20406;-75
2021/12/04 02:30:25;;;;;;;89.80;33.60;;;5.40;99.90;;;;;;5016933;28;20116;-75
2021/12/04 02:32:52;;;;;;;53.72;28.60;;;5.30;99.90;;;;;;5016586;28;20077;-75
2021/12/04 02:35:19;;;;;;;67.40;29.13;;;5.30;99.90;;;;;;5016828;28;20168;-75
2021/12/04 02:37:46;;;;;;;60.72;27.98;;;5.30;99.90;;;;;;5016596;28;20070;-75
2021/12/04 02:40:19;;;;;;;55.58;27.67;;;5.30;99.90;;;;;;5016685;28;20048;-75
2021/12/04 02:42:45;;;;;;;80.80;31.52;;;5.30;99.90;;;;;;5016705;28;20085;-75
2021/12/04 02:45:12;;;;;;;58.95;27.75;;;5.40;99.90;;;;;;5016413;28;20490;-75
2021/12/04 02:47:38;;;;;;;46.28;24.77;;;5.30;99.90;;;;;;5016518;28;20057;-75
2021/12/04 02:50:07;;;;;;;51.47;26.90;;;5.40;99.90;;;;;;5016149;28;20088;-75
2021/12/04 02:52:34;;;;;;;60.72;27.23;;;5.40;99.90;;;;;;5016416;28;20517;-75
2021/12/04 02:55:00;;;;;;;52.67;25.77;;;5.30;99.90;;;;;;4998793;28;20153;-75
2021/12/04 02:57:27;;;;;;;43.17;25.73;;;5.30;99.90;;;;;;5016373;28;20124;-75
2021/12/04 02:59:54;;;;;;;50.42;25.88;;;5.40;99.90;;;;;;5016022;28;20478;-75
2021/12/04 03:02:21;;;;;;;53.28;26.45;;;5.30;99.90;;;;;;5016605;28;20176;-74
2021/12/04 03:04:56;;;;;;;53.05;26.30;;;5.30;99.90;;;;;;5016248;28;20060;-75
2021/12/04 03:07:23;;;;;;;63.72;27.52;;;5.30;99.90;;;;;;5016527;28;20061;-75
2021/12/04 03:09:49;;;;;;;50.60;26.05;;;5.30;99.90;;;;;;5016153;28;20057;-75
2021/12/04 03:12:23;;;;;;;55.55;26.30;;;5.40;99.90;;;;;;5016236;28;20053;-75
2021/12/04 03:14:53;;;;;;;51.40;25.92;;;5.30;99.90;;;;;;5016147;28;20057;-75
2021/12/04 03:17:20;;;;;;;51.22;23.35;;;5.40;99.90;;;;;;5016365;28;20042;-75
2021/12/04 03:19:49;;;;;;;43.00;24.27;;;5.30;99.90;;;;;;4998749;28;20046;-75
2021/12/04 03:22:15;;;;;;;50.92;24.90;;;5.40;99.90;;;;;;5015521;28;20042;-75
2021/12/04 03:24:42;;;;;;;56.80;24.60;;;5.30;99.90;;;;;;5015894;28;20053;-75
2021/12/04 03:27:08;;;;;;;55.45;23.63;;;5.30;99.90;;;;;;5015382;28;20049;-75
2021/12/04 03:29:39;;;;;;;45.27;22.03;;;5.30;99.90;;;;;;5015693;28;20052;-74
2021/12/04 03:32:23;;;;;;;47.17;22.92;;;5.30;99.90;;;;;;4998024;28;20296;-75
2021/12/04 03:40:35;;;;;;;37.10;22.13;;;5.30;99.90;;;;;;5014893;28;20136;-75
2021/12/04 03:43:03;;;;;;;49.58;23.15;;;5.30;99.90;;;;;;5015272;28;20052;-75
2021/12/04 03:45:29;;;;;;;53.20;23.48;;;5.30;99.90;;;;;;5015412;28;20414;-75
2021/12/04 03:48:04;;;;;;;50.95;21.80;;;5.30;99.90;;;;;;5015211;28;20050;-75
2021/12/04 03:50:31;;;;;;;51.53;24.33;;;5.30;99.90;;;;;;4983664;28;20089;-75
2021/12/04 03:52:57;;;;;;;42.47;22.85;;;5.30;99.90;;;;;;4997725;28;20054;-75
2021/12/04 03:55:25;;;;;;;40.67;20.73;;;5.30;99.90;;;;;;4997794;28;20052;-74
2021/12/04 03:57:51;;;;;;;54.22;23.05;;;5.30;99.90;;;;;;5015330;28;20055;-75
2021/12/04 04:00:23;;;;;;;47.88;22.08;;;5.30;99.90;;;;;;4997568;28;20474;-75
2021/12/04 04:02:48;;;;;;;54.20;22.17;;;5.30;99.90;;;;;;5015163;28;20119;-75
2021/12/04 04:05:14;;;;;;;54.73;22.57;;;5.30;99.90;;;;;;5014872;28;20053;-75
2021/12/04 04:07:40;;;;;;;42.60;20.60;;;5.30;99.90;;;;;;5015215;28;20059;-75
2021/12/04 04:10:07;;;;;;;47.27;21.30;;;5.30;99.90;;;;;;5014812;28;20374;-75
2021/12/04 04:12:33;;;;;;;42.42;20.67;;;5.30;99.90;;;;;;5015002;28;20132;-75
2021/12/04 04:14:58;;;;;;;61.83;24.20;;;5.30;99.90;;;;;;4997414;28;20133;-75
2021/12/04 04:17:27;;;;;;;44.30;22.20;;;5.30;99.90;;;;;;5015247;28;20133;-75
2021/12/04 04:19:53;;;;;;;52.92;23.63;;;5.40;99.90;;;;;;5014873;28;20331;-74
2021/12/04 04:22:19;;;;;;;47.53;22.90;;;5.30;99.90;;;;;;4997023;28;20081;-75
2021/12/04 04:24:44;;;;;;;45.70;21.53;;;5.30;99.90;;;;;;5014803;28;20049;-75
2021/12/04 04:27:10;;;;;;;41.97;21.10;;;5.30;99.90;;;;;;5014539;28;20047;-75
2021/12/04 04:29:36;;;;;;;37.17;20.70;;;5.30;99.90;;;;;;5014831;28;20490;-74
2021/12/04 04:32:02;;;;;;;44.13;20.50;;;5.30;99.90;;;;;;5014382;28;20466;-75
2021/12/04 04:34:31;;;;;;;58.90;23.50;;;5.30;99.90;;;;;;5014637;28;20054;-75
2021/12/04 04:59:23;;;;;;;43.70;22.20;;;5.40;99.90;;;;;;5014402;28;20050;-75
2021/12/04 05:14:36;;;;;;;67.72;25.58;;;5.40;99.90;;;;;;5014233;28;20151;-75
2021/12/04 05:17:28;;;;;;;55.00;23.20;;;5.30;99.90;;;;;;5013791;28;20041;-75
2021/12/04 05:19:54;;;;;;;47.10;22.27;;;5.30;99.90;;;;;;5012909;28;20150;-75
2021/12/04 05:22:21;;;;;;;60.05;24.13;;;5.30;99.90;;;;;;5013090;28;20495;-75
2021/12/04 05:24:48;;;;;;;46.15;22.33;;;5.30;99.90;;;;;;5013982;28;20081;-75
2021/12/04 05:27:14;;;;;;;57.15;22.95;;;5.30;99.90;;;;;;5013417;28;20050;-75
2021/12/04 05:29:41;;;;;;;52.10;21.75;;;5.40;99.90;;;;;;5013640;28;20038;-75
2021/12/04 05:32:07;;;;;;;45.63;20.95;;;5.30;99.90;;;;;;4995811;28;20092;-75
2021/12/04 05:34:34;;;;;;;60.42;23.38;;;5.40;99.90;;;;;;4996275;28;20413;-75
2021/12/04 05:37:00;;;;;;;42.60;23.05;;;5.40;99.90;;;;;;5013910;28;20057;-75
2021/12/04 05:39:26;;;;;;;50.17;22.00;;;5.40;99.90;;;;;;5013123;28;20491;-75
2021/12/04 05:41:52;;;;;;;46.77;21.90;;;5.40;99.90;;;;;;5013425;28;20061;-75
2021/12/04 05:44:22;;;;;;;51.28;22.25;;;5.40;99.90;;;;;;5013143;28;20449;-75
2021/12/04 05:46:58;;;;;;;45.05;20.98;;;5.40;99.90;;;;;;5013516;28;20136;-74
2021/12/04 05:49:38;;;;;;;55.00;23.67;;;5.40;99.90;;;;;;5013043;28;20406;-75
2021/12/04 05:57:05;;;;;;;41.35;20.50;;;5.40;99.90;;;;;;5012965;28;20050;-75
2021/12/04 05:59:31;;;;;;;54.92;23.08;;;5.40;99.90;;;;;;5013231;28;20045;-75
2021/12/04 06:01:57;;;;;;;48.53;21.43;;;5.40;99.90;;;;;;5012693;28;20402;-74
2021/12/04 06:04:23;;;;;;;43.78;21.00;;;5.40;99.90;;;;;;5012841;28;20508;-75
2021/12/04 06:06:49;;;;;;;53.65;21.55;;;5.40;99.90;;;;;;5013115;28;20047;-75
2021/12/04 06:09:15;;;;;;;43.70;20.50;;;5.40;99.90;;;;;;5012840;28;20056;-74
2021/12/04 06:11:40;;;;;;;42.90;21.83;;;5.40;99.90;;;;;;5013086;28;20060;-75
2021/12/04 06:14:06;;;;;;;47.57;21.40;;;5.40;99.90;;;;;;4995348;28;20046;-75
2021/12/04 06:16:33;;;;;;;48.57;21.53;;;5.40;99.90;;;;;;5013372;28;20514;-75
2021/12/04 06:19:05;;;;;;;106.72;49.72;;;5.40;99.90;;;;;;5013075;28;20053;-75
2021/12/04 06:24:16;;;;;;;61.08;29.55;;;5.40;99.90;;;;;;5012690;28;20492;-75
2021/12/04 06:26:41;;;;;;;54.97;25.93;;;5.30;99.90;;;;;;5013233;28;20046;-75
2021/12/04 06:29:07;;;;;;;47.13;21.73;;;5.30;99.90;;;;;;5012878;28;20081;-75
2021/12/04 06:31:33;;;;;;;50.63;20.90;;;5.40;99.90;;;;;;5012826;28;20042;-75
2021/12/04 06:33:59;;;;;;;52.60;25.43;;;5.30;99.90;;;;;;5012872;28;20046;-75
2021/12/04 06:36:25;;;;;;;42.25;21.23;;;5.30;99.90;;;;;;5012513;28;20132;-75
2021/12/04 06:38:53;;;;;;;38.28;20.60;;;5.30;99.90;;;;;;5012822;28;20093;-75
2021/12/04 06:41:19;;;;;;;55.13;23.02;;;5.30;99.90;;;;;;4994892;28;20042;-75
2021/12/04 06:43:50;;;;;;;46.73;21.13;;;5.30;99.90;;;;;;5012807;28;20053;-75
2021/12/04 06:46:17;;;;;;;62.22;23.95;;;5.30;99.90;;;;;;5012580;28;20129;-75
2021/12/04 06:51:39;;;;;;;59.90;22.20;;;5.30;99.90;;;;;;4982088;28;20132;-75
2021/12/04 06:54:08;;;;;;;51.85;20.80;;;5.40;99.90;;;;;;4995333;28;20050;-75
2021/12/04 06:56:36;;;;;;;56.00;21.10;;;5.30;99.90;;;;;;5012378;28;20053;-75
2021/12/04 06:59:09;;;;;;;79.75;23.85;;;5.30;99.90;;;;;;5012695;28;20046;-75
2021/12/04 07:01:36;;;;;;;44.22;20.35;;;5.40;99.90;;;;;;4994877;28;20045;-74
2021/12/04 07:04:03;;;;;;;45.67;19.58;;;5.30;99.90;;;;;;5012209;28;20064;-74
2021/12/04 07:06:28;;;;;;;43.20;19.55;;;5.30;99.90;;;;;;5012215;28;20112;-74
2021/12/04 07:08:56;;;;;;;49.40;19.93;;;5.30;99.90;;;;;;5012750;28;20050;-74
2021/12/04 07:11:22;;;;;;;77.07;28.67;;;5.30;99.90;;;;;;5012262;28;20072;-75
2021/12/04 07:13:48;;;;;;;75.00;24.30;;;5.30;99.90;;;;;;5013248;28;20474;-75
2021/12/04 07:16:18;;;;;;;51.00;19.57;;;5.30;99.90;;;;;;5015878;28;20160;-75
2021/12/04 07:18:43;;;;;;;47.17;20.70;;;5.30;99.90;;;;;;5016365;28;20079;-75
2021/12/04 07:21:09;;;;;;;58.33;20.90;;;5.30;99.90;;;;;;5016065;28;20056;-75
2021/12/04 07:23:36;;;;;;;45.30;20.17;;;5.30;99.90;;;;;;4998419;28;20056;-75
2021/12/04 07:26:02;;;;;;;67.22;21.05;;;5.30;99.90;;;;;;5015662;28;20513;-75
2021/12/04 07:28:28;;;;;;;89.22;29.02;;;5.30;99.90;;;;;;5015531;28;20061;-75
2021/12/04 07:30:54;;;;;;;62.97;23.57;;;5.30;99.90;;;;;;5015826;28;20038;-75
2021/12/04 07:33:20;;;;;;;52.67;26.20;;;5.30;99.90;;;;;;5015455;28;20045;-75
2021/12/04 07:35:45;;;;;;;68.90;23.53;;;5.30;99.90;;;;;;4998340;28;20125;-75
2021/12/04 07:38:13;;;;;;;81.97;23.93;;;5.30;99.90;;;;;;5015739;28;20052;-75
2021/12/04 07:40:40;;;;;;;60.90;23.17;;;5.30;99.90;;;;;;5015417;28;20074;-75
2021/12/04 07:43:06;;;;;;;70.30;22.85;;;5.30;99.90;;;;;;5015596;28;20049;-75
2021/12/04 07:45:32;;;;;;;68.03;22.83;;;5.30;99.90;;;;;;5015278;28;20049;-75
2021/12/04 07:47:58;;;;;;;68.50;20.20;;;5.30;99.90;;;;;;4998071;28;20041;-75
2021/12/04 07:50:24;;;;;;;72.97;21.87;;;5.30;99.90;;;;;;5015226;28;20100;-75
2021/12/04 07:52:50;;;;;;;55.70;20.77;;;5.30;99.90;;;;;;5015746;28;20081;-75
2021/12/04 07:55:16;;;;;;;79.93;24.13;;;5.30;99.90;;;;;;5015409;28;20490;-75
2021/12/04 07:57:42;;;;;;;64.28;21.23;;;5.30;99.90;;;;;;4997785;28;20133;-75
2021/12/04 08:00:11;;;;;;;54.83;20.73;;;5.30;99.90;;;;;;4997640;28;20144;-75
2021/12/04 08:02:39;;;;;;;79.07;22.48;;;5.30;99.90;;;;;;5014584;28;20874;-75
2021/12/04 08:05:05;;;;;;;87.00;34.80;;;5.40;99.90;;;;;;5014840;28;20494;-75
2021/12/04 08:07:31;;;;;;;63.75;21.05;;;5.30;99.90;;;;;;5014855;28;20132;-74
2021/12/04 08:09:57;;;;;;;61.67;20.90;;;5.30;99.90;;;;;;5015138;28;20125;-74
2021/12/04 08:12:22;;;;;;;85.33;21.37;;;5.30;99.90;;;;;;5014829;28;20564;-77
2021/12/04 08:14:48;;;;;;;71.67;22.10;;;5.30;99.90;;;;;;4997535;28;20050;-76
2021/12/04 08:17:14;;;;;;;71.50;22.50;;;5.30;99.90;;;;;;5015283;28;20125;-76
2021/12/04 08:19:40;;;;;;;59.60;24.73;;;5.30;99.90;;;;;;5014687;28;20402;-76
2021/12/04 08:22:05;;;;;;;75.40;23.63;;;5.30;99.90;;;;;;5014852;28;20037;-76
2021/12/04 08:24:31;;;;;;;53.03;26.50;;;5.30;99.90;;;;;;5014474;28;20285;-76
2021/12/04 08:26:57;;;;;;;68.47;20.27;;;5.30;99.90;;;;;;5014753;28;20060;-76
2021/12/04 08:29:23;;;;;;;57.23;19.33;;;5.30;99.90;;;;;;4997177;28;20058;-77
2021/12/04 08:31:50;;;;;;;58.17;20.23;;;5.30;99.90;;;;;;4997460;28;20050;-75
2021/12/04 08:34:16;;;;;;;88.88;23.90;;;5.30;99.90;;;;;;5014694;28;20042;-75
2021/12/04 08:36:42;;;;;;;55.50;21.27;;;5.30;99.90;;;;;;4997068;28;20482;-77
2021/12/04 08:39:08;;;;;;;50.58;20.20;;;5.30;99.90;;;;;;5014663;28;20053;-75
2021/12/04 08:41:34;;;;;;;48.37;20.50;;;5.40;99.90;;;;;;5014177;28;20046;-74
2021/12/04 08:44:00;;;;;;;67.32;22.70;;;5.30;99.90;;;;;;5014667;28;20054;-75
2021/12/04 08:46:26;;;;;;;57.57;22.90;;;5.30;99.90;;;;;;5014447;28;20113;-74
2021/12/04 08:48:56;;;;;;;71.30;23.55;;;5.30;99.90;;;;;;5014412;28;20053;-75
2021/12/04 08:51:23;;;;;;;60.42;21.40;;;5.40;99.90;;;;;;5014171;28;20077;-75
2021/12/04 08:53:51;;;;;;;55.47;21.80;;;5.30;99.90;;;;;;5014441;28;20050;-76
2021/12/04 08:56:16;;;;;;;58.80;22.55;;;5.30;99.90;;;;;;5014234;28;20104;-76
2021/12/04 08:58:42;;;;;;;84.97;23.40;;;5.30;99.90;;;;;;5013977;28;20045;-76
2021/12/04 09:01:13;;;;;;;69.03;23.17;;;5.40;99.90;;;;;;4996839;28;20046;-75
2021/12/04 09:03:44;;;;;;;45.97;19.67;;;5.30;99.90;;;;;;5013587;28;20054;-76
2021/12/04 09:06:10;;;;;;;64.85;26.50;;;5.30;99.90;;;;;;5014427;28;20048;-78
2021/12/04 09:08:37;;;;;;;72.88;25.40;;;5.30;99.90;;;;;;5013707;28;20050;-78
2021/12/04 09:11:12;;;;;;;56.70;20.15;;;5.30;99.90;;;;;;5014334;28;20058;-76
2021/12/04 09:13:39;;;;;;;70.50;21.67;;;5.30;99.90;;;;;;5013742;28;20042;-75
2021/12/04 09:16:05;;;;;;;58.75;24.60;;;5.30;99.90;;;;;;4996790;28;20053;-75
2021/12/04 09:18:32;;;;;;;47.95;19.05;;;5.30;99.90;;;;;;5013591;28;20042;-76
2021/12/04 09:20:57;;;;;;;83.45;35.30;;;5.30;99.90;;;;;;4996639;28;20129;-76
2021/12/04 09:23:27;;;;;;;43.80;19.50;;;5.40;99.90;;;;;;5013836;28;20120;-76
2021/12/04 09:25:56;;;;;;;76.60;21.30;;;5.30;99.90;;;;;;5013777;28;20387;-76
2021/12/04 09:28:26;;;;;;;49.05;19.35;;;5.40;99.90;;;;;;5013641;28;20054;-76
2021/12/04 10:00:38;;;;;;;42.50;19.00;;;5.40;99.90;;;;;;5013413;28;20072;-74
2021/12/04 10:33:46;;;;;;;38.63;19.60;;;5.50;99.90;;;;;;5012666;28;20057;-76
2021/12/04 10:36:13;;;;;;;42.20;18.65;;;5.50;99.90;;;;;;5013050;28;20073;-79
2021/12/04 10:38:44;;;;;;;51.50;18.77;;;5.50;99.90;;;;;;5012649;28;20050;-80
2021/12/04 10:41:15;;;;;;;50.47;19.27;;;5.50;99.90;;;;;;4995534;28;20472;-75
2021/12/04 10:43:41;;;;;;;33.22;16.63;;;5.50;99.90;;;;;;5012349;28;20046;-76
2021/12/04 10:46:14;;;;;;;37.17;17.67;;;5.50;99.90;;;;;;5012764;28;20088;-75
2021/12/04 10:48:48;;;;;;;35.50;17.10;;;;;;;;;;4995562;28;20058;-77
2021/12/04 10:51:33;;;;;;;39.58;18.40;;;5.60;99.90;;;;;;5016913;28;20050;-76
2021/12/04 10:54:04;;;;;;;44.13;18.23;;;5.70;99.90;;;;;;5016697;28;20089;-75
2021/12/04 11:04:31;;;;;;;38.53;17.92;;;5.60;99.90;;;;;;5016724;28;20089;-73
2021/12/04 11:07:22;;;;;;;36.83;18.42;;;5.60;99.90;;;;;;5016123;28;20057;-74
2021/12/04 11:40:01;;;;;;;28.70;15.68;;;5.70;99.90;;;;;;5015491;28;20053;-77
2021/12/04 11:42:41;;;;;;;29.33;16.63;;;5.70;99.90;;;;;;5015766;28;20049;-77
2021/12/04 11:45:19;;;;;;;31.00;18.98;;;5.70;99.90;;;;;;5015916;28;20046;-82
2021/12/04 11:47:50;;;;;;;53.28;32.88;;;5.70;99.90;;;;;;4998147;28;20147;-79
2021/12/04 11:50:30;;;;;;;36.05;22.20;;;5.70;99.90;;;;;;5015495;28;20093;-79
2021/12/04 11:53:02;;;;;;;32.15;20.85;;;5.70;99.90;;;;;;5015272;28;20085;-79
2021/12/04 11:55:31;;;;;;;27.25;16.60;;;5.70;99.90;;;;;;5015636;28;20437;-80
2021/12/04 11:57:57;;;;;;;29.90;19.25;;;5.70;99.90;;;;;;4997574;28;20049;-80
2021/12/04 12:00:35;;;;;;;32.50;18.67;;;5.70;99.90;;;;;;5014862;28;20045;-82
2021/12/04 12:03:22;;;;;;;35.10;21.45;;;5.70;99.90;;;;;;5014880;28;20828;-77
2021/12/04 12:06:01;;;;;;;33.55;20.77;;;5.70;99.90;;;;;;5015044;28;20054;-79
2021/12/04 12:08:29;;;;;;;24.02;14.57;;;;;;;;;;5015544;28;20050;-76
2021/12/04 12:11:08;;;;;;;43.80;25.65;;;5.70;99.90;;;;;;5014803;28;20042;-77
2021/12/04 12:13:41;;;;;;;37.78;23.08;;;5.70;99.90;;;;;;5015498;28;20045;-77
2021/12/04 12:16:31;;;;;;;32.55;18.80;;;5.80;99.90;;;;;;5014622;28;20516;-77
2021/12/04 12:19:00;;;;;;;31.83;19.20;;;5.80;99.90;;;;;;5014756;28;20053;-75
2021/12/04 12:21:44;;;;;;;34.10;19.38;;;5.80;99.90;;;;;;4997300;28;20048;-77
2021/12/04 12:36:09;;;;;;;36.95;19.60;;;5.90;99.90;;;;;;5014809;28;20050;-76
2021/12/04 12:38:41;;;;;;;35.97;19.98;;;;;;;;;;5014740;28;20532;-79
2021/12/04 12:41:31;;;;;;;34.85;20.27;;;5.90;99.90;;;;;;4995390;28;20463;-79
2021/12/04 12:43:56;;;;;;;35.63;19.55;;;5.90;99.90;;;;;;4995672;28;20089;-79
2021/12/04 12:46:38;;;;;;;37.37;21.17;;;6.00;99.90;;;;;;4997023;28;20060;-82
2021/12/04 12:49:16;;;;;;;39.53;21.35;;;5.90;99.90;;;;;;4996994;28;20085;-78
2021/12/04 12:51:44;;;;;;;33.78;19.15;;;5.90;99.90;;;;;;5014581;28;20057;-77
2021/12/04 12:54:10;;;;;;;38.60;19.20;;;5.90;99.90;;;;;;5014166;28;20053;-77
2021/12/04 12:56:37;;;;;;;36.07;18.60;;;5.90;99.90;;;;;;4996874;28;20153;-77
2021/12/04 12:59:19;;;;;;;32.95;18.52;;;5.90;99.90;;;;;;4996491;28;20445;-76
2021/12/04 13:13:33;;;;;;;29.65;18.80;;;5.90;99.90;;;;;;5013483;28;20146;-78
2021/12/04 13:16:06;;;;;;;33.05;19.38;;;5.90;99.90;;;;;;5013874;28;20054;-80
2021/12/04 13:18:35;;;;;;;28.90;18.27;;;5.90;99.90;;;;;;5014052;28;20058;-79
2021/12/04 13:21:10;;;;;;;28.20;18.40;;;5.90;99.90;;;;;;5013755;28;20046;-82
2021/12/04 13:23:38;;;;;;;32.65;19.05;;;5.90;99.90;;;;;;5014170;28;20068;-77
2021/12/04 13:26:11;;;;;;;28.17;17.33;;;5.90;99.90;;;;;;5013550;28;20455;-75
2021/12/04 13:28:40;;;;;;;30.45;17.33;;;6.00;99.90;;;;;;4996414;28;20478;-79
2021/12/04 13:31:07;;;;;;;26.40;15.93;;;5.90;99.90;;;;;;5013398;28;20046;-80
2021/12/04 13:33:36;;;;;;;28.08;17.58;;;5.90;99.90;;;;;;5013839;28;20058;-77
2021/12/04 13:36:10;;;;;;;26.95;16.92;;;5.90;99.90;;;;;;5013468;28;20210;-80
2021/12/04 13:38:36;;;;;;;28.92;16.05;;;5.90;99.90;;;;;;5013857;28;20096;-75
2021/12/04 13:41:02;;;;;;;28.13;17.10;;;5.90;99.90;;;;;;5013209;28;20471;-79
2021/12/04 13:43:28;;;;;;;29.17;15.80;;;5.90;99.90;;;;;;5013205;28;20128;-78
2021/12/04 13:46:03;;;;;;;29.70;16.60;;;5.90;99.90;;;;;;5013063;28;20085;-75
2021/12/04 13:48:30;;;;;;;28.58;17.02;;;5.90;99.90;;;;;;5013463;28;20505;-79
2021/12/04 13:50:57;;;;;;;35.90;20.08;;;5.90;99.90;;;;;;5013605;28;20176;-79
2021/12/04 13:53:30;;;;;;;30.67;18.23;;;5.90;99.90;;;;;;5013591;28;20085;-79
2021/12/04 13:55:57;;;;;;;29.13;18.80;;;5.90;99.90;;;;;;5013317;28;20128;-79
2021/12/04 13:58:23;;;;;;;30.27;17.63;;;5.90;99.90;;;;;;5013353;28;20060;-79
2021/12/04 14:00:50;;;;;;;33.33;19.30;;;5.90;99.90;;;;;;5013396;28;20046;-81
2021/12/04 14:03:21;;;;;;;35.97;19.35;;;5.90;99.90;;;;;;4995377;28;20054;-79
2021/12/04 14:05:47;;;;;;;35.15;18.08;;;5.90;99.90;;;;;;5013337;28;20093;-79
2021/12/04 14:08:12;;;;;;;37.67;20.00;;;5.90;99.90;;;;;;5012867;28;20096;-77
2021/12/04 14:10:42;;;;;;;29.53;18.03;;;5.90;99.90;;;;;;5012861;28;20084;-80
2021/12/04 14:13:10;;;;;;;33.70;18.52;;;5.90;99.90;;;;;;5012861;28;20045;-77
2021/12/04 14:15:36;;;;;;;35.75;18.70;;;5.90;99.90;;;;;;5013177;28;20085;-74
2021/12/04 14:18:08;;;;;;;33.40;18.85;;;5.80;99.90;;;;;;5012757;28;20125;-77
2021/12/04 14:20:36;;;;;;;38.83;23.05;;;5.90;99.90;;;;;;5013127;28;20064;-85
2021/12/04 14:23:02;;;;;;;35.70;18.90;;;5.80;99.90;;;;;;5014952;28;20050;-75
2021/12/04 14:25:29;;;;;;;42.47;23.52;;;5.90;99.90;;;;;;5019517;28;20045;-73
2021/12/04 14:27:59;;;;;;;43.22;20.80;;;5.90;99.90;;;;;;5019486;28;20041;-75
2021/12/04 14:30:33;;;;;;;35.92;20.27;;;5.90;99.90;;;;;;5019612;28;20099;-79
2021/12/04 14:33:02;;;;;;;35.60;18.98;;;5.90;99.90;;;;;;5019231;28;20493;-78
2021/12/04 14:35:33;;;;;;;32.75;18.40;;;5.90;99.90;;;;;;5001984;28;20054;-80
2021/12/04 14:38:01;;;;;;;35.72;18.77;;;5.90;99.90;;;;;;5001380;28;20050;-73
2021/12/04 14:40:36;;;;;;;41.85;20.60;;;5.90;99.90;;;;;;5002065;28;20092;-76
2021/12/04 14:43:05;;;;;;;34.97;19.13;;;5.90;99.90;;;;;;5001613;28;20054;-78
2021/12/04 14:45:33;;;;;;;34.30;17.80;;;5.90;99.90;;;;;;5019452;28;20050;-77
2021/12/04 14:48:12;;;;;;;42.72;20.95;;;5.90;99.90;;;;;;5001861;28;20083;-80
2021/12/04 14:50:45;;;;;;;41.53;20.88;;;5.90;99.90;;;;;;5019375;28;20041;-76
2021/12/04 14:53:13;;;;;;;39.80;20.42;;;5.90;99.90;;;;;;5019003;28;20045;-79
2021/12/04 14:55:42;;;;;;;46.03;20.50;;;5.90;99.90;;;;;;4985386;28;20050;-80
2021/12/04 14:58:13;;;;;;;35.33;19.08;;;5.90;99.90;;;;;;5001685;28;20052;-77
2021/12/04 15:00:44;;;;;;;37.00;18.25;;;5.90;99.90;;;;;;4985151;28;20128;-78
2021/12/04 15:03:20;;;;;;;37.63;18.77;;;5.90;99.90;;;;;;5018435;28;20529;-78
2021/12/04 15:05:54;;;;;;;41.50;20.13;;;5.90;99.90;;;;;;5002007;28;20058;-78
2021/12/04 15:08:26;;;;;;;37.03;18.05;;;6.00;99.90;;;;;;5018964;28;20060;-76
2021/12/04 15:11:16;;;;;;;34.15;18.08;;;6.00;99.90;;;;;;5019313;28;20045;-77
2021/12/04 15:14:09;;;;;;;29.00;16.90;;;6.00;99.90;;;;;;5018860;28;20551;-78
2021/12/04 15:16:45;;;;;;;32.33;18.80;;;6.00;99.90;;;;;;4985870;28;20146;-74
2021/12/04 15:19:41;;;;;;;34.75;17.45;;;6.00;99.90;;;;;;5018885;28;20052;-74
2021/12/04 15:22:16;;;;;;;31.73;16.08;;;6.00;99.90;;;;;;5018736;28;20116;-74
2021/12/04 15:24:44;;;;;;;29.85;17.65;;;6.00;99.90;;;;;;5019096;28;20053;-78
2021/12/04 15:27:15;;;;;;;30.08;17.30;;;6.00;99.90;;;;;;5018823;28;20057;-78
2021/12/04 15:29:48;;;;;;;34.83;17.70;;;6.00;99.90;;;;;;5001878;28;20050;-81
2021/12/04 15:32:16;;;;;;;31.30;17.38;;;6.00;99.90;;;;;;5018502;28;20041;-78
2021/12/04 15:35:09;;;;;;;26.27;16.38;;;6.00;99.90;;;;;;5016982;28;20088;-78
2021/12/04 15:37:40;;;;;;;31.55;17.13;;;6.00;99.90;;;;;;5015901;28;20089;-78
2021/12/04 15:40:27;;;;;;;31.02;18.08;;;6.00;99.90;;;;;;5015565;28;20049;-77
2021/12/04 15:53:52;;;;;;;34.10;19.77;;;5.90;99.90;;;;;;4994567;28;20050;-76
2021/12/04 15:56:36;;;;;;;38.55;18.85;;;6.00;99.90;;;;;;5015204;28;20056;-77
2021/12/04 15:59:04;;;;;;;32.30;18.52;;;5.90;99.90;;;;;;5015441;28;20046;-76
2021/12/04 16:01:30;;;;;;;31.25;18.83;;;5.90;99.90;;;;;;5015302;28;20049;-76
2021/12/04 16:03:58;;;;;;;31.52;18.15;;;5.90;99.90;;;;;;5015502;28;20058;-76